sensor_id;sensor_type;location;lat;lon;timestamp;pressure;altitude;pressure_sealevel;temperature;humidity
13869;BME280;7004;48.206;16.402;2023-05-25T00:02:08;100155.81;;;16.93;71.05
13869;BME280;7004;48.206;16.402;2023-05-25T00:04:34;100150.91;;;16.66;71.69
13869;BME280;7004;48.206;16.402;2023-05-25T00:07:02;100154.44;;;16.66;72.93
13869;BME280;7004;48.206;16.402;2023-05-25T00:09:28;100162.84;;;16.50;72.13
13869;BME280;7004;48.206;16.402;2023-05-25T00:11:54;100162.03;;;15.93;74.76
13869;BME280;7004;48.206;16.402;2023-05-25T00:14:21;100162.63;;;16.31;73.24
13869;BME280;7004;48.206;16.402;2023-05-25T00:16:47;100171.31;;;16.44;72.77
13869;BME280;7004;48.206;16.402;2023-05-25T00:19:14;100159.97;;;16.86;72.15
13869;BME280;7004;48.206;16.402;2023-05-25T00:21:40;100163.69;;;16.28;74.11
13869;BME280;7004;48.206;16.402;2023-05-25T00:24:07;100159.91;;;16.53;72.30
13869;BME280;7004;48.206;16.402;2023-05-25T00:26:36;100151.84;;;16.87;71.29
13869;BME280;7004;48.206;16.402;2023-05-25T00:29:03;100156.28;;;16.98;69.57
13869;BME280;7004;48.206;16.402;2023-05-25T00:31:29;100165.69;;;16.70;70.13
13869;BME280;7004;48.206;16.402;2023-05-25T00:33:57;100155.22;;;16.34;71.90
13869;BME280;7004;48.206;16.402;2023-05-25T00:36:24;100163.09;;;16.13;71.13
13869;BME280;7004;48.206;16.402;2023-05-25T00:38:50;100160.81;;;16.09;72.25
13869;BME280;7004;48.206;16.402;2023-05-25T00:41:17;100171.97;;;16.14;71.37
13869;BME280;7004;48.206;16.402;2023-05-25T00:43:46;100172.94;;;16.24;71.08
13869;BME280;7004;48.206;16.402;2023-05-25T00:46:14;100171.94;;;16.36;71.72
13869;BME280;7004;48.206;16.402;2023-05-25T00:48:41;100176.66;;;16.55;69.40
13869;BME280;7004;48.206;16.402;2023-05-25T00:51:09;100173.44;;;15.96;70.91
13869;BME280;7004;48.206;16.402;2023-05-25T00:53:36;100183.03;;;15.51;72.68
13869;BME280;7004;48.206;16.402;2023-05-25T00:56:09;100173.16;;;16.21;70.80
13869;BME280;7004;48.206;16.402;2023-05-25T00:58:39;100171.16;;;15.44;73.14
13869;BME280;7004;48.206;16.402;2023-05-25T01:01:08;100180.50;;;15.61;72.37
13869;BME280;7004;48.206;16.402;2023-05-25T01:03:43;100177.72;;;15.63;72.88
13869;BME280;7004;48.206;16.402;2023-05-25T01:06:14;100170.47;;;16.44;70.67
13869;BME280;7004;48.206;16.402;2023-05-25T01:08:47;100162.50;;;16.10;70.58
13869;BME280;7004;48.206;16.402;2023-05-25T01:11:14;100166.16;;;16.20;70.73
13869;BME280;7004;48.206;16.402;2023-05-25T01:13:42;100174.75;;;16.12;70.40
13869;BME280;7004;48.206;16.402;2023-05-25T01:16:09;100173.28;;;15.97;70.96
13869;BME280;7004;48.206;16.402;2023-05-25T01:18:35;100172.94;;;15.90;70.74
13869;BME280;7004;48.206;16.402;2023-05-25T01:21:13;100178.81;;;15.60;71.46
13869;BME280;7004;48.206;16.402;2023-05-25T01:23:52;100172.69;;;15.71;70.74
13869;BME280;7004;48.206;16.402;2023-05-25T01:26:23;100177.06;;;16.17;69.83
13869;BME280;7004;48.206;16.402;2023-05-25T01:28:52;100174.75;;;15.79;71.31
13869;BME280;7004;48.206;16.402;2023-05-25T01:31:21;100165.19;;;15.99;70.76
13869;BME280;7004;48.206;16.402;2023-05-25T01:33:52;100182.94;;;15.64;72.10
13869;BME280;7004;48.206;16.402;2023-05-25T01:36:19;100168.31;;;16.37;69.90
13869;BME280;7004;48.206;16.402;2023-05-25T01:38:46;100168.81;;;15.98;70.33
13869;BME280;7004;48.206;16.402;2023-05-25T01:41:12;100184.31;;;15.70;71.21
13869;BME280;7004;48.206;16.402;2023-05-25T01:43:39;100179.59;;;15.73;72.15
13869;BME280;7004;48.206;16.402;2023-05-25T01:47:23;100171.75;;;16.06;70.15
13869;BME280;7004;48.206;16.402;2023-05-25T01:52:28;100171.59;;;16.19;70.50
13869;BME280;7004;48.206;16.402;2023-05-25T01:55:10;100175.44;;;16.48;69.38
13869;BME280;7004;48.206;16.402;2023-05-25T01:57:42;100176.81;;;15.75;71.33
13869;BME280;7004;48.206;16.402;2023-05-25T02:00:12;100175.25;;;16.06;71.24
13869;BME280;7004;48.206;16.402;2023-05-25T02:02:41;100175.44;;;16.48;68.46
13869;BME280;7004;48.206;16.402;2023-05-25T02:05:09;100170.16;;;15.92;70.80
13869;BME280;7004;48.206;16.402;2023-05-25T02:07:37;100173.81;;;15.56;72.29
13869;BME280;7004;48.206;16.402;2023-05-25T02:10:04;100167.50;;;16.03;71.25
13869;BME280;7004;48.206;16.402;2023-05-25T02:12:30;100172.75;;;15.58;72.28
13869;BME280;7004;48.206;16.402;2023-05-25T02:14:57;100180.44;;;16.30;69.52
13869;BME280;7004;48.206;16.402;2023-05-25T02:17:23;100172.91;;;16.35;69.48
13869;BME280;7004;48.206;16.402;2023-05-25T02:19:54;100176.59;;;16.01;71.48
13869;BME280;7004;48.206;16.402;2023-05-25T02:22:21;100178.38;;;15.89;71.63
13869;BME280;7004;48.206;16.402;2023-05-25T02:24:48;100184.44;;;15.33;72.65
13869;BME280;7004;48.206;16.402;2023-05-25T02:27:14;100183.59;;;15.79;71.68
13869;BME280;7004;48.206;16.402;2023-05-25T02:29:40;100186.97;;;15.81;71.38
13869;BME280;7004;48.206;16.402;2023-05-25T02:32:07;100184.19;;;15.71;72.46
13869;BME280;7004;48.206;16.402;2023-05-25T02:34:33;100190.53;;;15.11;74.08
13869;BME280;7004;48.206;16.402;2023-05-25T02:37:00;100202.22;;;15.33;73.27
13869;BME280;7004;48.206;16.402;2023-05-25T02:39:27;100198.38;;;15.83;72.69
13869;BME280;7004;48.206;16.402;2023-05-25T02:41:53;100199.63;;;15.55;73.32
13869;BME280;7004;48.206;16.402;2023-05-25T02:44:20;100197.13;;;15.65;71.84
13869;BME280;7004;48.206;16.402;2023-05-25T02:46:46;100202.97;;;15.92;70.62
13869;BME280;7004;48.206;16.402;2023-05-25T02:49:13;100204.13;;;15.66;71.27
13869;BME280;7004;48.206;16.402;2023-05-25T02:51:39;100204.06;;;15.43;71.73
13869;BME280;7004;48.206;16.402;2023-05-25T02:54:05;100202.53;;;15.63;72.20
13869;BME280;7004;48.206;16.402;2023-05-25T02:56:31;100205.78;;;15.91;70.19
13869;BME280;7004;48.206;16.402;2023-05-25T02:58:57;100212.19;;;15.42;72.01
13869;BME280;7004;48.206;16.402;2023-05-25T03:01:23;100217.63;;;15.76;71.72
13869;BME280;7004;48.206;16.402;2023-05-25T03:03:50;100219.72;;;15.94;70.56
13869;BME280;7004;48.206;16.402;2023-05-25T03:06:19;100221.03;;;15.78;70.94
13869;BME280;7004;48.206;16.402;2023-05-25T03:08:48;100221.03;;;15.78;70.93
13869;BME280;7004;48.206;16.402;2023-05-25T03:11:14;100223.81;;;15.17;72.78
13869;BME280;7004;48.206;16.402;2023-05-25T03:13:40;100227.44;;;15.40;72.01
13869;BME280;7004;48.206;16.402;2023-05-25T03:16:07;100218.66;;;15.62;71.06
13869;BME280;7004;48.206;16.402;2023-05-25T03:18:33;100229.75;;;15.44;72.01
13869;BME280;7004;48.206;16.402;2023-05-25T03:21:00;100222.97;;;15.76;70.59
13869;BME280;7004;48.206;16.402;2023-05-25T03:23:26;100224.41;;;15.33;72.09
13869;BME280;7004;48.206;16.402;2023-05-25T03:26:03;100219.50;;;15.62;71.53
13869;BME280;7004;48.206;16.402;2023-05-25T03:28:29;100216.19;;;16.05;69.74
13869;BME280;7004;48.206;16.402;2023-05-25T03:30:55;100217.38;;;15.79;70.64
13869;BME280;7004;48.206;16.402;2023-05-25T03:33:22;100215.03;;;15.63;71.78
13869;BME280;7004;48.206;16.402;2023-05-25T03:35:48;100211.63;;;15.61;71.74
13869;BME280;7004;48.206;16.402;2023-05-25T03:38:14;100203.00;;;16.15;70.08
13869;BME280;7004;48.206;16.402;2023-05-25T03:40:40;100223.81;;;15.76;70.85
13869;BME280;7004;48.206;16.402;2023-05-25T03:43:06;100227.25;;;16.01;70.22
13869;BME280;7004;48.206;16.402;2023-05-25T03:45:32;100227.47;;;16.31;68.69
13869;BME280;7004;48.206;16.402;2023-05-25T03:47:59;100243.16;;;15.32;72.31
13869;BME280;7004;48.206;16.402;2023-05-25T03:50:25;100237.91;;;15.30;71.83
13869;BME280;7004;48.206;16.402;2023-05-25T03:52:51;100234.28;;;15.66;71.93
13869;BME280;7004;48.206;16.402;2023-05-25T03:55:17;100231.47;;;15.21;73.21
13869;BME280;7004;48.206;16.402;2023-05-25T03:57:44;100240.53;;;15.89;70.95
13869;BME280;7004;48.206;16.402;2023-05-25T04:00:11;100241.00;;;15.13;73.60
13869;BME280;7004;48.206;16.402;2023-05-25T04:02:40;100241.56;;;15.29;72.21
13869;BME280;7004;48.206;16.402;2023-05-25T04:05:06;100236.09;;;15.66;71.26
13869;BME280;7004;48.206;16.402;2023-05-25T04:07:34;100233.97;;;15.82;71.08
13869;BME280;7004;48.206;16.402;2023-05-25T04:10:03;100225.66;;;16.09;70.30
13869;BME280;7004;48.206;16.402;2023-05-25T04:12:29;100229.78;;;16.02;69.79
13869;BME280;7004;48.206;16.402;2023-05-25T04:14:55;100228.78;;;16.71;72.34
13869;BME280;7004;48.206;16.402;2023-05-25T04:17:21;100223.97;;;16.53;71.25
13869;BME280;7004;48.206;16.402;2023-05-25T04:19:50;100231.72;;;16.00;69.44
13869;BME280;7004;48.206;16.402;2023-05-25T04:22:17;100227.72;;;16.28;67.46
13869;BME280;7004;48.206;16.402;2023-05-25T04:24:44;100227.69;;;17.17;67.58
13869;BME280;7004;48.206;16.402;2023-05-25T04:27:11;100236.16;;;17.33;69.10
13869;BME280;7004;48.206;16.402;2023-05-25T04:29:40;100228.06;;;16.69;69.08
13869;BME280;7004;48.206;16.402;2023-05-25T04:32:06;100228.31;;;16.54;66.19
13869;BME280;7004;48.206;16.402;2023-05-25T04:34:34;100232.75;;;17.31;67.14
13869;BME280;7004;48.206;16.402;2023-05-25T04:37:01;100235.38;;;17.63;64.09
13869;BME280;7004;48.206;16.402;2023-05-25T04:39:31;100236.44;;;17.19;66.17
13869;BME280;7004;48.206;16.402;2023-05-25T04:41:57;100241.44;;;16.12;67.00
13869;BME280;7004;48.206;16.402;2023-05-25T04:44:24;100236.91;;;16.69;68.91
13869;BME280;7004;48.206;16.402;2023-05-25T04:46:50;100233.94;;;17.06;63.82
13869;BME280;7004;48.206;16.402;2023-05-25T04:49:18;100234.72;;;16.74;66.66
13869;BME280;7004;48.206;16.402;2023-05-25T04:51:44;100236.75;;;17.58;66.00
13869;BME280;7004;48.206;16.402;2023-05-25T04:54:10;100242.25;;;17.77;61.66
13869;BME280;7004;48.206;16.402;2023-05-25T04:56:36;100260.19;;;16.00;66.67
13869;BME280;7004;48.206;16.402;2023-05-25T04:59:02;100245.59;;;17.05;63.16
13869;BME280;7004;48.206;16.402;2023-05-25T05:01:29;100264.41;;;15.56;67.36
13869;BME280;7004;48.206;16.402;2023-05-25T05:03:55;100254.13;;;15.98;66.24
13869;BME280;7004;48.206;16.402;2023-05-25T05:06:22;100254.63;;;16.70;64.82
13869;BME280;7004;48.206;16.402;2023-05-25T05:08:50;100252.66;;;17.59;63.40
13869;BME280;7004;48.206;16.402;2023-05-25T05:11:16;100260.69;;;16.05;67.51
13869;BME280;7004;48.206;16.402;2023-05-25T05:13:42;100257.22;;;17.47;62.90
13869;BME280;7004;48.206;16.402;2023-05-25T05:16:08;100261.75;;;17.03;63.55
13869;BME280;7004;48.206;16.402;2023-05-25T05:18:35;100257.25;;;17.36;61.99
13869;BME280;7004;48.206;16.402;2023-05-25T05:21:01;100252.81;;;18.00;62.66
13869;BME280;7004;48.206;16.402;2023-05-25T05:23:27;100258.09;;;17.37;64.58
13869;BME280;7004;48.206;16.402;2023-05-25T05:25:53;100256.69;;;16.89;65.87
13869;BME280;7004;48.206;16.402;2023-05-25T05:28:19;100258.41;;;17.55;61.49
13869;BME280;7004;48.206;16.402;2023-05-25T05:30:45;100257.03;;;18.02;62.10
13869;BME280;7004;48.206;16.402;2023-05-25T05:33:13;100253.88;;;17.87;63.99
13869;BME280;7004;48.206;16.402;2023-05-25T05:35:39;100261.03;;;17.34;62.35
13869;BME280;7004;48.206;16.402;2023-05-25T05:38:05;100256.84;;;18.15;59.83
13869;BME280;7004;48.206;16.402;2023-05-25T05:40:32;100267.66;;;17.18;65.12
13869;BME280;7004;48.206;16.402;2023-05-25T05:42:58;100272.22;;;16.62;62.12
13869;BME280;7004;48.206;16.402;2023-05-25T05:45:25;100281.09;;;16.73;63.11
13869;BME280;7004;48.206;16.402;2023-05-25T05:47:51;100272.00;;;16.42;64.45
13869;BME280;7004;48.206;16.402;2023-05-25T05:50:17;100267.50;;;16.54;63.62
13869;BME280;7004;48.206;16.402;2023-05-25T05:52:43;100275.03;;;16.37;64.51
13869;BME280;7004;48.206;16.402;2023-05-25T05:55:09;100279.16;;;16.53;64.01
13869;BME280;7004;48.206;16.402;2023-05-25T05:57:35;100277.81;;;16.81;63.27
13869;BME280;7004;48.206;16.402;2023-05-25T06:00:02;100275.72;;;16.62;62.82
13869;BME280;7004;48.206;16.402;2023-05-25T06:02:32;100286.50;;;16.04;65.22
13869;BME280;7004;48.206;16.402;2023-05-25T06:04:58;100289.81;;;16.42;64.93
13869;BME280;7004;48.206;16.402;2023-05-25T06:07:26;100287.25;;;16.06;66.22
13869;BME280;7004;48.206;16.402;2023-05-25T06:09:53;100288.13;;;16.41;65.36
13869;BME280;7004;48.206;16.402;2023-05-25T06:12:20;100291.41;;;16.22;66.39
13869;BME280;7004;48.206;16.402;2023-05-25T06:14:46;100296.97;;;16.30;66.49
13869;BME280;7004;48.206;16.402;2023-05-25T06:17:15;100284.00;;;17.25;63.48
13869;BME280;7004;48.206;16.402;2023-05-25T06:19:41;100287.38;;;16.50;65.48
13869;BME280;7004;48.206;16.402;2023-05-25T06:22:07;100293.19;;;17.43;63.36
13869;BME280;7004;48.206;16.402;2023-05-25T06:24:33;100294.06;;;17.65;61.90
13869;BME280;7004;48.206;16.402;2023-05-25T06:26:59;100290.09;;;16.84;63.51
13869;BME280;7004;48.206;16.402;2023-05-25T06:29:28;100296.97;;;16.75;64.55
13869;BME280;7004;48.206;16.402;2023-05-25T06:31:54;100296.50;;;17.36;62.67
13869;BME280;7004;48.206;16.402;2023-05-25T06:34:20;100299.25;;;18.20;61.03
13869;BME280;7004;48.206;16.402;2023-05-25T06:36:46;100290.38;;;18.19;59.67
13869;BME280;7004;48.206;16.402;2023-05-25T06:39:12;100290.41;;;17.66;61.27
13869;BME280;7004;48.206;16.402;2023-05-25T06:41:40;100284.47;;;18.25;59.63
13869;BME280;7004;48.206;16.402;2023-05-25T06:44:06;100288.72;;;17.33;62.58
13869;BME280;7004;48.206;16.402;2023-05-25T06:46:32;100290.13;;;18.53;58.93
13869;BME280;7004;48.206;16.402;2023-05-25T06:48:59;100288.50;;;19.60;55.39
13869;BME280;7004;48.206;16.402;2023-05-25T06:51:26;100296.41;;;17.90;60.30
13869;BME280;7004;48.206;16.402;2023-05-25T06:53:54;100298.06;;;18.12;58.25
13869;BME280;7004;48.206;16.402;2023-05-25T06:56:21;100293.72;;;19.52;55.69
13869;BME280;7004;48.206;16.402;2023-05-25T06:58:48;100297.22;;;18.12;59.46
13869;BME280;7004;48.206;16.402;2023-05-25T07:01:15;100294.31;;;19.46;55.95
13869;BME280;7004;48.206;16.402;2023-05-25T07:03:42;100290.22;;;19.61;56.85
13869;BME280;7004;48.206;16.402;2023-05-25T07:06:08;100278.25;;;20.69;52.36
13869;BME280;7004;48.206;16.402;2023-05-25T07:08:37;100287.94;;;19.28;56.20
13869;BME280;7004;48.206;16.402;2023-05-25T07:11:03;100278.63;;;18.72;57.26
13869;BME280;7004;48.206;16.402;2023-05-25T07:13:29;100289.69;;;18.79;57.67
13869;BME280;7004;48.206;16.402;2023-05-25T07:15:55;100279.13;;;18.87;56.60
13869;BME280;7004;48.206;16.402;2023-05-25T07:18:21;100280.25;;;20.20;52.91
13869;BME280;7004;48.206;16.402;2023-05-25T07:20:47;100289.09;;;19.54;54.52
13869;BME280;7004;48.206;16.402;2023-05-25T07:23:13;100283.97;;;19.32;56.14
13869;BME280;7004;48.206;16.402;2023-05-25T07:25:40;100287.34;;;20.12;53.30
13869;BME280;7004;48.206;16.402;2023-05-25T07:28:07;100289.59;;;19.19;54.78
13869;BME280;7004;48.206;16.402;2023-05-25T07:30:33;100302.91;;;19.89;52.93
13869;BME280;7004;48.206;16.402;2023-05-25T07:32:59;100289.22;;;19.92;53.07
13869;BME280;7004;48.206;16.402;2023-05-25T07:35:25;100277.59;;;20.85;51.69
13869;BME280;7004;48.206;16.402;2023-05-25T07:38:00;100292.63;;;19.74;53.32
13869;BME280;7004;48.206;16.402;2023-05-25T07:40:26;100291.06;;;19.33;54.11
13869;BME280;7004;48.206;16.402;2023-05-25T07:42:53;100282.66;;;20.70;51.99
13869;BME280;7004;48.206;16.402;2023-05-25T07:45:19;100287.31;;;21.32;50.51
13869;BME280;7004;48.206;16.402;2023-05-25T07:47:46;100295.56;;;19.91;52.96
13869;BME280;7004;48.206;16.402;2023-05-25T07:50:13;100288.13;;;21.60;49.74
13869;BME280;7004;48.206;16.402;2023-05-25T07:52:40;100291.56;;;21.34;50.23
13869;BME280;7004;48.206;16.402;2023-05-25T07:55:07;100288.97;;;21.60;48.73
13869;BME280;7004;48.206;16.402;2023-05-25T07:57:34;100287.41;;;22.46;48.46
13869;BME280;7004;48.206;16.402;2023-05-25T08:00:00;100301.75;;;20.11;51.78
13869;BME280;7004;48.206;16.402;2023-05-25T08:02:26;100292.16;;;21.56;49.64
13869;BME280;7004;48.206;16.402;2023-05-25T08:04:52;100284.78;;;22.28;48.10
13869;BME280;7004;48.206;16.402;2023-05-25T08:07:19;100285.44;;;21.42;48.79
13869;BME280;7004;48.206;16.402;2023-05-25T08:09:46;100292.25;;;21.19;49.18
13869;BME280;7004;48.206;16.402;2023-05-25T08:12:12;100289.78;;;21.07;48.68
13869;BME280;7004;48.206;16.402;2023-05-25T08:14:38;100289.94;;;22.82;46.25
13869;BME280;7004;48.206;16.402;2023-05-25T08:17:04;100294.72;;;21.66;48.86
13869;BME280;7004;48.206;16.402;2023-05-25T08:19:30;100303.31;;;21.33;48.27
13869;BME280;7004;48.206;16.402;2023-05-25T08:21:57;100297.66;;;21.54;47.10
13869;BME280;7004;48.206;16.402;2023-05-25T08:24:24;100293.84;;;22.53;47.35
13869;BME280;7004;48.206;16.402;2023-05-25T08:26:50;100294.91;;;22.60;45.11
13869;BME280;7004;48.206;16.402;2023-05-25T08:29:17;100297.31;;;21.22;49.35
13869;BME280;7004;48.206;16.402;2023-05-25T08:31:43;100293.78;;;20.76;49.73
13869;BME280;7004;48.206;16.402;2023-05-25T08:34:14;100298.19;;;21.22;48.64
13869;BME280;7004;48.206;16.402;2023-05-25T08:36:41;100292.06;;;20.75;49.62
13869;BME280;7004;48.206;16.402;2023-05-25T08:39:07;100284.38;;;22.49;47.79
13869;BME280;7004;48.206;16.402;2023-05-25T08:41:36;100283.03;;;23.30;44.13
13869;BME280;7004;48.206;16.402;2023-05-25T08:44:05;100294.19;;;22.24;45.79
13869;BME280;7004;48.206;16.402;2023-05-25T08:46:34;100293.31;;;21.53;47.64
13869;BME280;7004;48.206;16.402;2023-05-25T08:51:48;100288.13;;;22.22;45.66
13869;BME280;7004;48.206;16.402;2023-05-25T08:54:20;100300.06;;;22.01;46.03
13869;BME280;7004;48.206;16.402;2023-05-25T08:59:25;100292.84;;;23.55;44.56
13869;BME280;7004;48.206;16.402;2023-05-25T09:02:48;100296.41;;;22.29;46.54
13869;BME280;7004;48.206;16.402;2023-05-25T09:04:45;100290.91;;;22.73;46.48
13869;BME280;7004;48.206;16.402;2023-05-25T09:07:12;100288.41;;;24.20;44.55
13869;BME280;7004;48.206;16.402;2023-05-25T09:09:39;100288.84;;;22.32;45.82
13869;BME280;7004;48.206;16.402;2023-05-25T09:12:06;100294.28;;;23.17;45.55
13869;BME280;7004;48.206;16.402;2023-05-25T09:14:33;100299.72;;;21.60;48.42
13869;BME280;7004;48.206;16.402;2023-05-25T09:17:00;100295.75;;;23.03;46.83
13869;BME280;7004;48.206;16.402;2023-05-25T09:19:26;100297.31;;;23.14;45.25
13869;BME280;7004;48.206;16.402;2023-05-25T09:21:52;100295.94;;;23.10;45.77
13869;BME280;7004;48.206;16.402;2023-05-25T09:24:19;100304.25;;;22.90;45.81
13869;BME280;7004;48.206;16.402;2023-05-25T09:26:47;100306.72;;;22.15;46.94
13869;BME280;7004;48.206;16.402;2023-05-25T09:29:14;100301.28;;;22.59;46.01
13869;BME280;7004;48.206;16.402;2023-05-25T09:31:42;100296.00;;;23.34;46.34
13869;BME280;7004;48.206;16.402;2023-05-25T09:34:14;100295.63;;;22.71;46.47
13869;BME280;7004;48.206;16.402;2023-05-25T09:36:41;100306.34;;;23.96;44.57
13869;BME280;7004;48.206;16.402;2023-05-25T09:39:09;100296.69;;;22.86;45.26
13869;BME280;7004;48.206;16.402;2023-05-25T09:41:42;100302.03;;;22.17;46.24
13869;BME280;7004;48.206;16.402;2023-05-25T09:44:08;100308.84;;;22.03;47.59
13869;BME280;7004;48.206;16.402;2023-05-25T09:46:35;100301.19;;;22.77;46.47
13869;BME280;7004;48.206;16.402;2023-05-25T09:49:07;100305.63;;;22.86;46.53
13869;BME280;7004;48.206;16.402;2023-05-25T09:51:35;100293.09;;;23.11;47.45
13869;BME280;7004;48.206;16.402;2023-05-25T09:54:03;100302.59;;;23.48;45.57
13869;BME280;7004;48.206;16.402;2023-05-25T09:56:31;100300.88;;;21.76;46.99
13869;BME280;7004;48.206;16.402;2023-05-25T09:58:58;100303.66;;;22.10;46.81
13869;BME280;7004;48.206;16.402;2023-05-25T10:01:25;100291.75;;;23.32;46.27
13869;BME280;7004;48.206;16.402;2023-05-25T10:03:55;100287.44;;;23.64;44.55
13869;BME280;7004;48.206;16.402;2023-05-25T10:06:25;100281.72;;;24.63;43.47
13869;BME280;7004;48.206;16.402;2023-05-25T10:08:53;100280.03;;;25.02;43.50
13869;BME280;7004;48.206;16.402;2023-05-25T10:11:21;100295.00;;;23.52;45.47
13869;BME280;7004;48.206;16.402;2023-05-25T10:13:49;100295.84;;;23.61;45.17
13869;BME280;7004;48.206;16.402;2023-05-25T10:16:17;100286.84;;;24.50;43.45
13869;BME280;7004;48.206;16.402;2023-05-25T10:19:06;100287.19;;;23.08;45.20
13869;BME280;7004;48.206;16.402;2023-05-25T10:21:37;100282.78;;;24.46;42.04
13869;BME280;7004;48.206;16.402;2023-05-25T10:24:23;100283.09;;;25.76;41.69
13869;BME280;7004;48.206;16.402;2023-05-25T10:26:53;100287.28;;;24.70;43.94
13869;BME280;7004;48.206;16.402;2023-05-25T10:29:22;100285.53;;;23.31;44.40
13869;BME280;7004;48.206;16.402;2023-05-25T10:31:50;100277.09;;;23.34;44.59
13869;BME280;7004;48.206;16.402;2023-05-25T10:34:17;100291.00;;;23.72;45.00
13869;BME280;7004;48.206;16.402;2023-05-25T10:36:45;100285.91;;;24.10;45.21
13869;BME280;7004;48.206;16.402;2023-05-25T10:39:14;100286.56;;;22.88;46.54
13869;BME280;7004;48.206;16.402;2023-05-25T10:41:41;100269.91;;;23.84;44.89
13869;BME280;7004;48.206;16.402;2023-05-25T10:44:08;100266.34;;;25.35;41.38
13869;BME280;7004;48.206;16.402;2023-05-25T10:46:35;100259.38;;;24.78;42.94
13869;BME280;7004;48.206;16.402;2023-05-25T10:49:01;100256.75;;;24.93;42.42
13869;BME280;7004;48.206;16.402;2023-05-25T10:51:40;100268.69;;;23.70;44.42
13869;BME280;7004;48.206;16.402;2023-05-25T10:54:06;100259.84;;;25.13;42.86
13869;BME280;7004;48.206;16.402;2023-05-25T10:56:33;100261.97;;;25.95;41.42
13869;BME280;7004;48.206;16.402;2023-05-25T10:58:58;100263.56;;;25.20;41.33
13869;BME280;7004;48.206;16.402;2023-05-25T11:01:25;100261.31;;;23.72;43.54
13869;BME280;7004;48.206;16.402;2023-05-25T11:03:56;100272.34;;;22.69;45.15
13869;BME280;7004;48.206;16.402;2023-05-25T11:09:29;100262.31;;;23.88;43.72
13869;BME280;7004;48.206;16.402;2023-05-25T11:17:15;100244.22;;;24.13;43.25
13869;BME280;7004;48.206;16.402;2023-05-25T11:19:45;100249.19;;;24.49;43.06
13869;BME280;7004;48.206;16.402;2023-05-25T11:22:33;100251.47;;;24.12;44.16
13869;BME280;7004;48.206;16.402;2023-05-25T11:25:40;100242.06;;;23.92;44.04
13869;BME280;7004;48.206;16.402;2023-05-25T11:28:08;100222.47;;;24.54;41.91
13869;BME280;7004;48.206;16.402;2023-05-25T11:30:40;100222.75;;;25.30;41.66
13869;BME280;7004;48.206;16.402;2023-05-25T11:33:09;100217.03;;;25.24;42.20
13869;BME280;7004;48.206;16.402;2023-05-25T11:35:35;100209.81;;;25.40;40.96
13869;BME280;7004;48.206;16.402;2023-05-25T11:38:06;100216.84;;;25.87;40.94
13869;BME280;7004;48.206;16.402;2023-05-25T11:40:33;100217.34;;;24.19;42.64
13869;BME280;7004;48.206;16.402;2023-05-25T11:43:00;100219.59;;;23.99;43.07
13869;BME280;7004;48.206;16.402;2023-05-25T11:45:32;100212.03;;;23.95;43.66
13869;BME280;7004;48.206;16.402;2023-05-25T11:47:58;100215.66;;;24.27;43.38
13869;BME280;7004;48.206;16.402;2023-05-25T11:50:25;100200.31;;;26.11;39.40
13869;BME280;7004;48.206;16.402;2023-05-25T11:52:53;100219.75;;;24.06;41.86
13869;BME280;7004;48.206;16.402;2023-05-25T11:55:19;100194.53;;;25.24;41.50
13869;BME280;7004;48.206;16.402;2023-05-25T11:57:53;100200.34;;;24.58;42.69
13869;BME280;7004;48.206;16.402;2023-05-25T12:00:26;100199.06;;;25.00;42.47
13869;BME280;7004;48.206;16.402;2023-05-25T12:02:53;100199.03;;;24.46;42.66
13869;BME280;7004;48.206;16.402;2023-05-25T12:05:19;100199.91;;;23.83;42.92
13869;BME280;7004;48.206;16.402;2023-05-25T12:07:45;100195.06;;;24.17;42.58
13869;BME280;7004;48.206;16.402;2023-05-25T12:10:14;100182.25;;;25.74;42.70
13869;BME280;7004;48.206;16.402;2023-05-25T12:12:48;100191.16;;;24.99;42.24
13869;BME280;7004;48.206;16.402;2023-05-25T12:15:24;100176.97;;;24.97;42.51
13869;BME280;7004;48.206;16.402;2023-05-25T12:17:52;100174.66;;;24.23;43.65
13869;BME280;7004;48.206;16.402;2023-05-25T12:20:19;100165.09;;;26.26;41.07
13869;BME280;7004;48.206;16.402;2023-05-25T12:22:46;100167.72;;;24.91;42.24
13869;BME280;7004;48.206;16.402;2023-05-25T12:25:13;100164.44;;;26.54;41.66
13869;BME280;7004;48.206;16.402;2023-05-25T12:27:40;100172.03;;;26.80;40.32
13869;BME280;7004;48.206;16.402;2023-05-25T12:30:08;100180.38;;;25.37;41.97
13869;BME280;7004;48.206;16.402;2023-05-25T12:33:00;100170.81;;;25.87;42.38
13869;BME280;7004;48.206;16.402;2023-05-25T12:35:28;100171.28;;;25.38;42.29
13869;BME280;7004;48.206;16.402;2023-05-25T12:38:11;100172.34;;;25.28;42.34
13869;BME280;7004;48.206;16.402;2023-05-25T12:40:37;100173.91;;;26.13;42.61
13869;BME280;7004;48.206;16.402;2023-05-25T12:43:03;100173.00;;;25.83;41.93
13869;BME280;7004;48.206;16.402;2023-05-25T12:45:29;100169.06;;;25.18;42.68
13869;BME280;7004;48.206;16.402;2023-05-25T12:47:56;100172.03;;;25.46;42.35
13869;BME280;7004;48.206;16.402;2023-05-25T12:50:22;100169.03;;;25.94;41.54
13869;BME280;7004;48.206;16.402;2023-05-25T12:52:48;100164.31;;;26.62;41.05
13869;BME280;7004;48.206;16.402;2023-05-25T12:55:33;100168.88;;;25.58;42.99
13869;BME280;7004;48.206;16.402;2023-05-25T12:58:05;100164.72;;;26.29;40.96
13869;BME280;7004;48.206;16.402;2023-05-25T13:00:39;100165.41;;;25.03;41.77
13869;BME280;7004;48.206;16.402;2023-05-25T13:03:08;100160.91;;;26.09;41.23
13869;BME280;7004;48.206;16.402;2023-05-25T13:05:36;100158.63;;;25.07;43.96
13869;BME280;7004;48.206;16.402;2023-05-25T13:08:03;100150.53;;;24.84;43.00
13869;BME280;7004;48.206;16.402;2023-05-25T13:10:31;100150.22;;;25.02;43.48
13869;BME280;7004;48.206;16.402;2023-05-25T13:12:58;100147.16;;;25.66;43.62